Terminal Aerodrome Forecast
Issued by NWS

Home | Current Version | Previous Version | Text Only | Print | Product List | Glossary On
Versions: 1 2 3 4 5 6 7 8 9 10 11 12 13 14 15 16 17 18 19 20 21 22 23
000
FTUS44 KLUB 261700
TAFCDS
TAF
KCDS 261700Z 2618/2718 08011KT P6SM SCT050 BKN200
      TEMPO 2622/2701 VRB25G45KT 1SM +TSRAGR BKN035CB
     FM270100 04011KT P6SM -TSRA SCT010 OVC035CB=

USA.gov is the U.S. government's official web portal to all federal, state and local government web resources and services.